sensor_id;sensor_type;location;lat;lon;timestamp;temperature;humidity
71647;SHT31;59706;45.634;11.704;2023-04-25T00:01:02;14.59;71.56
71647;SHT31;59706;45.634;11.704;2023-04-25T00:03:30;14.54;71.70
71647;SHT31;59706;45.634;11.704;2023-04-25T00:05:58;14.59;71.78
71647;SHT31;59706;45.634;11.704;2023-04-25T00:08:31;14.65;71.71
71647;SHT31;59706;45.634;11.704;2023-04-25T00:10:58;14.65;71.60
71647;SHT31;59706;45.634;11.704;2023-04-25T00:13:27;14.65;71.60
71647;SHT31;59706;45.634;11.704;2023-04-25T00:15:55;14.60;71.65
71647;SHT31;59706;45.634;11.704;2023-04-25T00:18:23;14.51;71.85
71647;SHT31;59706;45.634;11.704;2023-04-25T00:20:50;14.54;71.79
71647;SHT31;59706;45.634;11.704;2023-04-25T00:23:18;14.52;71.79
71647;SHT31;59706;45.634;11.704;2023-04-25T03:12:30;14.46;70.71
71647;SHT31;59706;45.634;11.704;2023-04-25T03:14:58;14.44;70.50
71647;SHT31;59706;45.634;11.704;2023-04-25T03:17:25;14.42;70.51
71647;SHT31;59706;45.634;11.704;2023-04-25T03:19:52;14.38;70.79
71647;SHT31;59706;45.634;11.704;2023-04-25T03:22:21;14.38;70.92
71647;SHT31;59706;45.634;11.704;2023-04-25T03:24:49;14.42;71.14
71647;SHT31;59706;45.634;11.704;2023-04-25T03:27:17;14.46;71.02
71647;SHT31;59706;45.634;11.704;2023-04-25T03:29:45;14.40;70.76
71647;SHT31;59706;45.634;11.704;2023-04-25T03:32:12;14.36;70.73
71647;SHT31;59706;45.634;11.704;2023-04-25T03:34:39;14.35;70.83
71647;SHT31;59706;45.634;11.704;2023-04-25T03:37:07;14.25;71.08
71647;SHT31;59706;45.634;11.704;2023-04-25T03:39:34;14.16;71.24
71647;SHT31;59706;45.634;11.704;2023-04-25T03:42:02;14.08;71.38
71647;SHT31;59706;45.634;11.704;2023-04-25T03:44:31;14.09;71.50
71647;SHT31;59706;45.634;11.704;2023-04-25T03:46:58;14.16;71.25
71647;SHT31;59706;45.634;11.704;2023-04-25T03:49:25;14.19;71.30
71647;SHT31;59706;45.634;11.704;2023-04-25T03:51:54;14.18;71.20
71647;SHT31;59706;45.634;11.704;2023-04-25T03:54:22;14.14;71.25
71647;SHT31;59706;45.634;11.704;2023-04-25T03:56:49;14.09;71.35
71647;SHT31;59706;45.634;11.704;2023-04-25T03:59:16;14.04;71.40
71647;SHT31;59706;45.634;11.704;2023-04-25T04:01:44;14.01;71.50
71647;SHT31;59706;45.634;11.704;2023-04-25T04:04:11;13.99;71.64
71647;SHT31;59706;45.634;11.704;2023-04-25T04:06:39;13.97;71.73
71647;SHT31;59706;45.634;11.704;2023-04-25T04:09:07;14.01;71.87
71647;SHT31;59706;45.634;11.704;2023-04-25T04:11:36;14.04;71.84
71647;SHT31;59706;45.634;11.704;2023-04-25T04:14:07;14.04;71.89
71647;SHT31;59706;45.634;11.704;2023-04-25T04:16:35;14.13;72.13
71647;SHT31;59706;45.634;11.704;2023-04-25T04:19:02;14.27;72.28
71647;SHT31;59706;45.634;11.704;2023-04-25T04:21:29;14.40;72.14
71647;SHT31;59706;45.634;11.704;2023-04-25T04:23:57;14.45;72.19
71647;SHT31;59706;45.634;11.704;2023-04-25T04:26:25;14.56;71.77
71647;SHT31;59706;45.634;11.704;2023-04-25T04:28:52;14.58;71.99
71647;SHT31;59706;45.634;11.704;2023-04-25T04:31:23;14.50;72.47
71647;SHT31;59706;45.634;11.704;2023-04-25T04:33:50;14.42;72.56
71647;SHT31;59706;45.634;11.704;2023-04-25T04:36:19;14.42;72.69
71647;SHT31;59706;45.634;11.704;2023-04-25T04:38:48;14.36;72.86
71647;SHT31;59706;45.634;11.704;2023-04-25T04:41:15;14.35;73.13
71647;SHT31;59706;45.634;11.704;2023-04-25T04:43:42;14.40;73.07
71647;SHT31;59706;45.634;11.704;2023-04-25T04:46:10;14.43;73.28
71647;SHT31;59706;45.634;11.704;2023-04-25T04:48:38;14.43;73.39
71647;SHT31;59706;45.634;11.704;2023-04-25T04:51:05;14.47;73.46
71647;SHT31;59706;45.634;11.704;2023-04-25T04:53:33;14.43;73.70
71647;SHT31;59706;45.634;11.704;2023-04-25T04:56:00;14.38;73.83
71647;SHT31;59706;45.634;11.704;2023-04-25T04:58:27;14.35;73.46
71647;SHT31;59706;45.634;11.704;2023-04-25T05:00:54;14.40;73.14
71647;SHT31;59706;45.634;11.704;2023-04-25T05:03:21;14.37;73.28
71647;SHT31;59706;45.634;11.704;2023-04-25T05:05:49;14.26;73.44
71647;SHT31;59706;45.634;11.704;2023-04-25T05:08:16;14.16;73.71
71647;SHT31;59706;45.634;11.704;2023-04-25T05:10:43;14.13;73.89
71647;SHT31;59706;45.634;11.704;2023-04-25T05:13:11;14.09;73.77
71647;SHT31;59706;45.634;11.704;2023-04-25T05:15:38;14.12;74.44
71647;SHT31;59706;45.634;11.704;2023-04-25T05:18:06;14.26;74.67
71647;SHT31;59706;45.634;11.704;2023-04-25T05:20:33;14.33;74.89
71647;SHT31;59706;45.634;11.704;2023-04-25T05:23:01;14.26;75.08
71647;SHT31;59706;45.634;11.704;2023-04-25T05:25:29;14.23;75.03
71647;SHT31;59706;45.634;11.704;2023-04-25T05:27:56;14.16;75.05
71647;SHT31;59706;45.634;11.704;2023-04-25T05:30:23;14.03;75.25
71647;SHT31;59706;45.634;11.704;2023-04-25T05:32:50;13.93;75.44
71647;SHT31;59706;45.634;11.704;2023-04-25T05:35:18;13.96;75.70
71647;SHT31;59706;45.634;11.704;2023-04-25T05:37:46;13.97;75.52
71647;SHT31;59706;45.634;11.704;2023-04-25T05:40:13;14.07;75.48
71647;SHT31;59706;45.634;11.704;2023-04-25T05:42:41;14.11;75.51
71647;SHT31;59706;45.634;11.704;2023-04-25T05:45:09;14.19;75.57
71647;SHT31;59706;45.634;11.704;2023-04-25T05:47:37;14.21;75.72
71647;SHT31;59706;45.634;11.704;2023-04-25T05:50:04;14.16;75.85
71647;SHT31;59706;45.634;11.704;2023-04-25T05:52:34;14.13;76.10
71647;SHT31;59706;45.634;11.704;2023-04-25T05:55:02;14.15;75.96
71647;SHT31;59706;45.634;11.704;2023-04-25T05:57:32;14.18;75.77
71647;SHT31;59706;45.634;11.704;2023-04-25T06:00:00;14.20;75.93
71647;SHT31;59706;45.634;11.704;2023-04-25T06:02:34;14.16;76.04
71647;SHT31;59706;45.634;11.704;2023-04-25T06:05:01;14.12;76.19
71647;SHT31;59706;45.634;11.704;2023-04-25T06:07:29;14.12;76.14
71647;SHT31;59706;45.634;11.704;2023-04-25T06:09:57;14.10;76.13
71647;SHT31;59706;45.634;11.704;2023-04-25T06:12:25;14.10;76.21
71647;SHT31;59706;45.634;11.704;2023-04-25T06:14:52;14.12;76.51
71647;SHT31;59706;45.634;11.704;2023-04-25T06:17:20;14.14;76.62
71647;SHT31;59706;45.634;11.704;2023-04-25T06:19:47;14.14;76.33
71647;SHT31;59706;45.634;11.704;2023-04-25T06:22:14;14.20;76.14
71647;SHT31;59706;45.634;11.704;2023-04-25T06:24:41;14.32;76.03
71647;SHT31;59706;45.634;11.704;2023-04-25T06:27:09;14.40;76.01
71647;SHT31;59706;45.634;11.704;2023-04-25T06:29:37;14.49;75.82
71647;SHT31;59706;45.634;11.704;2023-04-25T06:32:04;14.56;75.70
71647;SHT31;59706;45.634;11.704;2023-04-25T06:34:32;14.60;75.77
71647;SHT31;59706;45.634;11.704;2023-04-25T06:37:00;14.59;75.77
71647;SHT31;59706;45.634;11.704;2023-04-25T06:39:27;14.57;75.74
71647;SHT31;59706;45.634;11.704;2023-04-25T06:41:55;14.48;75.86
71647;SHT31;59706;45.634;11.704;2023-04-25T06:44:22;14.39;76.09
71647;SHT31;59706;45.634;11.704;2023-04-25T06:46:51;14.39;75.93
71647;SHT31;59706;45.634;11.704;2023-04-25T06:49:18;14.47;75.55
71647;SHT31;59706;45.634;11.704;2023-04-25T06:51:45;14.47;75.16
71647;SHT31;59706;45.634;11.704;2023-04-25T06:54:13;14.49;74.73
71647;SHT31;59706;45.634;11.704;2023-04-25T06:56:41;14.50;74.43
71647;SHT31;59706;45.634;11.704;2023-04-25T06:59:08;14.47;74.23
71647;SHT31;59706;45.634;11.704;2023-04-25T07:01:35;14.46;74.04
71647;SHT31;59706;45.634;11.704;2023-04-25T07:04:02;14.45;74.10
71647;SHT31;59706;45.634;11.704;2023-04-25T07:06:30;14.39;74.31
71647;SHT31;59706;45.634;11.704;2023-04-25T07:08:57;14.35;74.21
71647;SHT31;59706;45.634;11.704;2023-04-25T07:11:24;14.20;74.54
71647;SHT31;59706;45.634;11.704;2023-04-25T07:13:51;14.06;74.96
71647;SHT31;59706;45.634;11.704;2023-04-25T07:16:19;14.00;75.11
71647;SHT31;59706;45.634;11.704;2023-04-25T07:18:46;13.93;75.23
71647;SHT31;59706;45.634;11.704;2023-04-25T07:21:14;13.91;75.39
71647;SHT31;59706;45.634;11.704;2023-04-25T07:23:42;13.94;75.32
71647;SHT31;59706;45.634;11.704;2023-04-25T07:26:09;14.00;75.19
71647;SHT31;59706;45.634;11.704;2023-04-25T07:28:35;13.94;75.23
71647;SHT31;59706;45.634;11.704;2023-04-25T07:31:03;13.83;75.38
71647;SHT31;59706;45.634;11.704;2023-04-25T07:33:30;13.73;75.48
71647;SHT31;59706;45.634;11.704;2023-04-25T07:35:58;13.62;75.75
71647;SHT31;59706;45.634;11.704;2023-04-25T07:38:25;13.57;75.76
71647;SHT31;59706;45.634;11.704;2023-04-25T07:40:52;13.65;75.31
71647;SHT31;59706;45.634;11.704;2023-04-25T07:43:20;13.77;75.07
71647;SHT31;59706;45.634;11.704;2023-04-25T07:45:47;13.91;75.03
71647;SHT31;59706;45.634;11.704;2023-04-25T07:48:18;13.96;74.74
71647;SHT31;59706;45.634;11.704;2023-04-25T07:50:46;13.92;75.13
71647;SHT31;59706;45.634;11.704;2023-04-25T07:53:13;13.86;75.48
71647;SHT31;59706;45.634;11.704;2023-04-25T07:55:40;13.76;75.87
71647;SHT31;59706;45.634;11.704;2023-04-25T07:58:07;13.75;76.04
71647;SHT31;59706;45.634;11.704;2023-04-25T08:00:35;13.80;75.88
71647;SHT31;59706;45.634;11.704;2023-04-25T08:03:02;13.85;75.56
71647;SHT31;59706;45.634;11.704;2023-04-25T08:05:30;13.89;75.52
71647;SHT31;59706;45.634;11.704;2023-04-25T08:07:57;13.87;75.40
71647;SHT31;59706;45.634;11.704;2023-04-25T08:10:24;13.86;75.28
71647;SHT31;59706;45.634;11.704;2023-04-25T08:12:52;13.88;75.60
71647;SHT31;59706;45.634;11.704;2023-04-25T08:15:19;13.77;75.78
71647;SHT31;59706;45.634;11.704;2023-04-25T08:17:47;13.63;75.95
71647;SHT31;59706;45.634;11.704;2023-04-25T08:20:15;13.55;76.32
71647;SHT31;59706;45.634;11.704;2023-04-25T08:22:42;13.59;76.60
71647;SHT31;59706;45.634;11.704;2023-04-25T08:25:10;13.68;76.68
71647;SHT31;59706;45.634;11.704;2023-04-25T08:27:37;13.76;76.68
71647;SHT31;59706;45.634;11.704;2023-04-25T08:30:05;13.81;76.89
71647;SHT31;59706;45.634;11.704;2023-04-25T08:32:36;13.79;76.84
71647;SHT31;59706;45.634;11.704;2023-04-25T08:35:03;13.89;76.44
71647;SHT31;59706;45.634;11.704;2023-04-25T08:37:33;13.94;76.22
71647;SHT31;59706;45.634;11.704;2023-04-25T08:40:01;13.94;76.27
71647;SHT31;59706;45.634;11.704;2023-04-25T08:42:32;13.95;76.49
71647;SHT31;59706;45.634;11.704;2023-04-25T08:45:01;13.92;76.54
71647;SHT31;59706;45.634;11.704;2023-04-25T08:47:28;13.87;76.67
71647;SHT31;59706;45.634;11.704;2023-04-25T08:49:59;13.87;76.77
71647;SHT31;59706;45.634;11.704;2023-04-25T08:52:30;14.02;77.42
71647;SHT31;59706;45.634;11.704;2023-04-25T08:55:04;14.10;77.86
71647;SHT31;59706;45.634;11.704;2023-04-25T08:57:35;14.13;77.94
71647;SHT31;59706;45.634;11.704;2023-04-25T09:00:03;14.15;77.64
71647;SHT31;59706;45.634;11.704;2023-04-25T09:02:34;14.17;77.83
71647;SHT31;59706;45.634;11.704;2023-04-25T09:05:03;14.24;77.74
71647;SHT31;59706;45.634;11.704;2023-04-25T09:07:34;14.33;77.81
71647;SHT31;59706;45.634;11.704;2023-04-25T09:10:02;14.41;77.01
71647;SHT31;59706;45.634;11.704;2023-04-25T09:12:32;14.51;74.97
71647;SHT31;59706;45.634;11.704;2023-04-25T09:15:07;14.65;75.17
71647;SHT31;59706;45.634;11.704;2023-04-25T09:17:38;14.73;73.76
71647;SHT31;59706;45.634;11.704;2023-04-25T09:20:10;14.85;73.30
71647;SHT31;59706;45.634;11.704;2023-04-25T09:22:38;15.00;74.83
71647;SHT31;59706;45.634;11.704;2023-04-25T09:25:09;15.22;76.09
71647;SHT31;59706;45.634;11.704;2023-04-25T09:27:48;15.49;76.49
71647;SHT31;59706;45.634;11.704;2023-04-25T09:30:18;15.73;75.75
71647;SHT31;59706;45.634;11.704;2023-04-25T09:33:04;15.95;75.68
71647;SHT31;59706;45.634;11.704;2023-04-25T09:35:39;16.17;75.34
71647;SHT31;59706;45.634;11.704;2023-04-25T09:38:14;16.21;73.81
71647;SHT31;59706;45.634;11.704;2023-04-25T09:41:11;16.28;74.61
71647;SHT31;59706;45.634;11.704;2023-04-25T09:43:39;16.35;73.40
71647;SHT31;59706;45.634;11.704;2023-04-25T09:46:11;16.45;72.00
71647;SHT31;59706;45.634;11.704;2023-04-25T09:48:39;16.42;71.32
71647;SHT31;59706;45.634;11.704;2023-04-25T09:51:09;16.48;72.69
71647;SHT31;59706;45.634;11.704;2023-04-25T09:53:42;16.56;72.65
71647;SHT31;59706;45.634;11.704;2023-04-25T09:56:11;16.61;72.07
71647;SHT31;59706;45.634;11.704;2023-04-25T09:58:40;16.70;70.10
71647;SHT31;59706;45.634;11.704;2023-04-25T10:01:07;16.73;70.37
71647;SHT31;59706;45.634;11.704;2023-04-25T10:03:38;16.86;69.68
71647;SHT31;59706;45.634;11.704;2023-04-25T10:06:13;16.92;68.77
71647;SHT31;59706;45.634;11.704;2023-04-25T10:08:44;17.04;70.14
71647;SHT31;59706;45.634;11.704;2023-04-25T10:11:16;17.14;67.86
71647;SHT31;59706;45.634;11.704;2023-04-25T10:13:43;17.10;68.11
71647;SHT31;59706;45.634;11.704;2023-04-25T10:16:10;17.09;67.24
71647;SHT31;59706;45.634;11.704;2023-04-25T10:18:37;17.10;66.33
71647;SHT31;59706;45.634;11.704;2023-04-25T10:21:05;17.26;67.02
71647;SHT31;59706;45.634;11.704;2023-04-25T10:23:33;17.26;64.94
71647;SHT31;59706;45.634;11.704;2023-04-25T10:26:00;17.16;64.23
71647;SHT31;59706;45.634;11.704;2023-04-25T10:28:26;17.20;66.07
71647;SHT31;59706;45.634;11.704;2023-04-25T10:31:00;17.35;65.81
71647;SHT31;59706;45.634;11.704;2023-04-25T10:33:39;17.38;65.12
71647;SHT31;59706;45.634;11.704;2023-04-25T10:36:09;17.32;65.13
71647;SHT31;59706;45.634;11.704;2023-04-25T10:38:36;17.21;63.95
71647;SHT31;59706;45.634;11.704;2023-04-25T10:41:07;17.08;63.96
71647;SHT31;59706;45.634;11.704;2023-04-25T10:46:16;16.82;64.45
71647;SHT31;59706;45.634;11.704;2023-04-25T10:49:02;16.67;64.45
71647;SHT31;59706;45.634;11.704;2023-04-25T10:51:30;16.67;63.91
71647;SHT31;59706;45.634;11.704;2023-04-25T10:54:05;16.72;64.24
71647;SHT31;59706;45.634;11.704;2023-04-25T10:56:36;16.80;64.22
71647;SHT31;59706;45.634;11.704;2023-04-25T11:01:45;16.89;64.09
71647;SHT31;59706;45.634;11.704;2023-04-25T11:04:23;16.79;63.09
71647;SHT31;59706;45.634;11.704;2023-04-25T11:09:51;16.59;63.78
71647;SHT31;59706;45.634;11.704;2023-04-25T11:12:19;16.67;64.28
71647;SHT31;59706;45.634;11.704;2023-04-25T11:14:46;16.73;64.32
71647;SHT31;59706;45.634;11.704;2023-04-25T11:17:14;16.82;64.39
71647;SHT31;59706;45.634;11.704;2023-04-25T11:19:41;16.85;63.98
71647;SHT31;59706;45.634;11.704;2023-04-25T11:22:09;16.84;64.06
71647;SHT31;59706;45.634;11.704;2023-04-25T11:24:36;16.89;64.36
71647;SHT31;59706;45.634;11.704;2023-04-25T11:27:04;16.89;64.34
71647;SHT31;59706;45.634;11.704;2023-04-25T11:29:32;16.84;63.81
71647;SHT31;59706;45.634;11.704;2023-04-25T11:32:00;16.71;63.51
71647;SHT31;59706;45.634;11.704;2023-04-25T11:34:29;16.62;63.93
71647;SHT31;59706;45.634;11.704;2023-04-25T11:36:57;16.60;64.03
71647;SHT31;59706;45.634;11.704;2023-04-25T11:39:25;16.78;64.39
71647;SHT31;59706;45.634;11.704;2023-04-25T11:41:54;16.88;63.67
71647;SHT31;59706;45.634;11.704;2023-04-25T11:44:21;16.89;63.21
71647;SHT31;59706;45.634;11.704;2023-04-25T11:46:49;16.84;63.76
71647;SHT31;59706;45.634;11.704;2023-04-25T11:49:17;16.77;64.30
71647;SHT31;59706;45.634;11.704;2023-04-25T11:51:44;16.72;63.75
71647;SHT31;59706;45.634;11.704;2023-04-25T11:54:13;16.71;63.99
71647;SHT31;59706;45.634;11.704;2023-04-25T11:56:43;16.70;64.13
71647;SHT31;59706;45.634;11.704;2023-04-25T11:59:10;16.72;64.40
71647;SHT31;59706;45.634;11.704;2023-04-25T12:01:39;16.68;63.27
71647;SHT31;59706;45.634;11.704;2023-04-25T12:06:50;16.58;63.90
71647;SHT31;59706;45.634;11.704;2023-04-25T12:09:29;16.61;63.43
71647;SHT31;59706;45.634;11.704;2023-04-25T12:11:58;16.57;63.33
71647;SHT31;59706;45.634;11.704;2023-04-25T12:14:30;16.50;62.77
71647;SHT31;59706;45.634;11.704;2023-04-25T12:16:59;16.47;62.96
71647;SHT31;59706;45.634;11.704;2023-04-25T12:19:31;16.50;62.70
71647;SHT31;59706;45.634;11.704;2023-04-25T12:22:18;16.58;62.30
71647;SHT31;59706;45.634;11.704;2023-04-25T12:25:57;16.64;62.21
71647;SHT31;59706;45.634;11.704;2023-04-25T12:28:16;16.75;62.24
71647;SHT31;59706;45.634;11.704;2023-04-25T12:33:31;16.73;61.81
71647;SHT31;59706;45.634;11.704;2023-04-25T12:36:19;16.75;62.40
71647;SHT31;59706;45.634;11.704;2023-04-25T12:38:47;16.80;62.98
71647;SHT31;59706;45.634;11.704;2023-04-25T12:41:14;16.84;62.67
71647;SHT31;59706;45.634;11.704;2023-04-25T12:43:41;16.75;62.55
71647;SHT31;59706;45.634;11.704;2023-04-25T12:46:09;16.68;63.46
71647;SHT31;59706;45.634;11.704;2023-04-25T12:48:37;16.59;63.75
71647;SHT31;59706;45.634;11.704;2023-04-25T12:51:04;16.51;64.36
71647;SHT31;59706;45.634;11.704;2023-04-25T12:53:31;16.47;64.78
71647;SHT31;59706;45.634;11.704;2023-04-25T12:56:02;16.41;64.61
71647;SHT31;59706;45.634;11.704;2023-04-25T12:58:32;16.36;65.41
71647;SHT31;59706;45.634;11.704;2023-04-25T13:00:59;16.33;65.60
71647;SHT31;59706;45.634;11.704;2023-04-25T13:03:26;16.26;66.78
71647;SHT31;59706;45.634;11.704;2023-04-25T13:05:53;16.24;67.61
71647;SHT31;59706;45.634;11.704;2023-04-25T13:08:21;16.17;68.20
71647;SHT31;59706;45.634;11.704;2023-04-25T13:10:48;16.08;68.90
71647;SHT31;59706;45.634;11.704;2023-04-25T13:13:16;16.00;69.70
71647;SHT31;59706;45.634;11.704;2023-04-25T13:15:44;15.98;70.37
71647;SHT31;59706;45.634;11.704;2023-04-25T13:18:11;15.98;70.50
71647;SHT31;59706;45.634;11.704;2023-04-25T13:20:39;15.98;70.58
71647;SHT31;59706;45.634;11.704;2023-04-25T13:23:07;16.00;71.00
71647;SHT31;59706;45.634;11.704;2023-04-25T13:25:34;15.96;71.01
71647;SHT31;59706;45.634;11.704;2023-04-25T13:28:01;15.92;71.25
71647;SHT31;59706;45.634;11.704;2023-04-25T13:30:29;15.87;71.48
71647;SHT31;59706;45.634;11.704;2023-04-25T13:32:57;15.83;71.77
71647;SHT31;59706;45.634;11.704;2023-04-25T13:35:28;15.79;71.88
71647;SHT31;59706;45.634;11.704;2023-04-25T13:37:57;15.80;72.14
71647;SHT31;59706;45.634;11.704;2023-04-25T13:40:24;15.81;72.19
71647;SHT31;59706;45.634;11.704;2023-04-25T13:42:53;15.77;72.10
71647;SHT31;59706;45.634;11.704;2023-04-25T13:45:20;15.79;72.06
71647;SHT31;59706;45.634;11.704;2023-04-25T13:47:47;15.85;72.14
71647;SHT31;59706;45.634;11.704;2023-04-25T13:50:15;15.93;72.04
71647;SHT31;59706;45.634;11.704;2023-04-25T13:52:42;15.89;71.90
71647;SHT31;59706;45.634;11.704;2023-04-25T13:55:09;15.85;71.98
71647;SHT31;59706;45.634;11.704;2023-04-25T13:57:36;15.86;71.51
71647;SHT31;59706;45.634;11.704;2023-04-25T14:00:04;15.92;71.09
71647;SHT31;59706;45.634;11.704;2023-04-25T14:02:35;15.94;70.78
71647;SHT31;59706;45.634;11.704;2023-04-25T14:05:03;15.94;70.80
71647;SHT31;59706;45.634;11.704;2023-04-25T14:07:34;15.88;71.62
71647;SHT31;59706;45.634;11.704;2023-04-25T14:10:01;15.89;71.53
71647;SHT31;59706;45.634;11.704;2023-04-25T14:12:29;15.84;71.61
71647;SHT31;59706;45.634;11.704;2023-04-25T14:14:56;15.82;71.61
71647;SHT31;59706;45.634;11.704;2023-04-25T14:17:23;15.84;71.64
71647;SHT31;59706;45.634;11.704;2023-04-25T14:19:50;15.85;71.37
71647;SHT31;59706;45.634;11.704;2023-04-25T14:22:17;15.85;71.33
71647;SHT31;59706;45.634;11.704;2023-04-25T14:24:44;15.82;71.47
71647;SHT31;59706;45.634;11.704;2023-04-25T14:27:12;15.79;71.05
71647;SHT31;59706;45.634;11.704;2023-04-25T14:29:39;15.76;71.04
71647;SHT31;59706;45.634;11.704;2023-04-25T14:32:07;15.75;71.08
71647;SHT31;59706;45.634;11.704;2023-04-25T14:34:35;15.74;71.58
71647;SHT31;59706;45.634;11.704;2023-04-25T14:37:03;15.72;72.05
71647;SHT31;59706;45.634;11.704;2023-04-25T14:39:30;15.73;72.37
71647;SHT31;59706;45.634;11.704;2023-04-25T14:41:57;15.76;72.48
71647;SHT31;59706;45.634;11.704;2023-04-25T14:44:25;15.81;72.95
71647;SHT31;59706;45.634;11.704;2023-04-25T14:46:52;15.90;72.99
71647;SHT31;59706;45.634;11.704;2023-04-25T14:49:19;15.98;73.41
71647;SHT31;59706;45.634;11.704;2023-04-25T14:51:46;16.05;73.36
71647;SHT31;59706;45.634;11.704;2023-04-25T14:54:15;16.15;73.31
71647;SHT31;59706;45.634;11.704;2023-04-25T14:56:42;16.27;73.37
71647;SHT31;59706;45.634;11.704;2023-04-25T14:59:10;16.34;72.93
71647;SHT31;59706;45.634;11.704;2023-04-25T15:01:37;16.47;73.16
71647;SHT31;59706;45.634;11.704;2023-04-25T15:04:05;16.56;72.89
71647;SHT31;59706;45.634;11.704;2023-04-25T15:06:33;16.63;73.13
71647;SHT31;59706;45.634;11.704;2023-04-25T15:09:00;16.75;72.86
71647;SHT31;59706;45.634;11.704;2023-04-25T15:11:28;16.86;72.01
71647;SHT31;59706;45.634;11.704;2023-04-25T15:13:55;16.93;71.20
71647;SHT31;59706;45.634;11.704;2023-04-25T15:16:22;16.93;70.59
71647;SHT31;59706;45.634;11.704;2023-04-25T15:18:50;16.87;69.39
71647;SHT31;59706;45.634;11.704;2023-04-25T15:21:17;16.78;69.42
71647;SHT31;59706;45.634;11.704;2023-04-25T15:23:45;16.72;69.96
71647;SHT31;59706;45.634;11.704;2023-04-25T15:26:13;16.71;69.57
71647;SHT31;59706;45.634;11.704;2023-04-25T15:28:40;16.65;69.52
71647;SHT31;59706;45.634;11.704;2023-04-25T15:31:08;16.56;69.66
71647;SHT31;59706;45.634;11.704;2023-04-25T15:33:36;16.49;69.39
71647;SHT31;59706;45.634;11.704;2023-04-25T15:36:04;16.44;69.54
71647;SHT31;59706;45.634;11.704;2023-04-25T15:38:35;16.39;69.72
71647;SHT31;59706;45.634;11.704;2023-04-25T15:41:02;16.31;69.63
71647;SHT31;59706;45.634;11.704;2023-04-25T15:43:31;16.22;69.59
71647;SHT31;59706;45.634;11.704;2023-04-25T15:46:02;16.21;69.67
71647;SHT31;59706;45.634;11.704;2023-04-25T15:48:31;16.22;69.78
71647;SHT31;59706;45.634;11.704;2023-04-25T15:50:58;16.21;69.32
71647;SHT31;59706;45.634;11.704;2023-04-25T15:53:26;16.21;68.47
71647;SHT31;59706;45.634;11.704;2023-04-25T15:55:54;16.23;67.06
71647;SHT31;59706;45.634;11.704;2023-04-25T15:58:21;16.22;66.28
71647;SHT31;59706;45.634;11.704;2023-04-25T16:00:49;16.17;65.18
71647;SHT31;59706;45.634;11.704;2023-04-25T16:03:16;16.06;64.60
71647;SHT31;59706;45.634;11.704;2023-04-25T16:05:43;16.01;65.23
71647;SHT31;59706;45.634;11.704;2023-04-25T16:08:11;16.10;66.19
71647;SHT31;59706;45.634;11.704;2023-04-25T16:10:38;16.15;67.36
71647;SHT31;59706;45.634;11.704;2023-04-25T16:13:06;16.21;67.45
71647;SHT31;59706;45.634;11.704;2023-04-25T16:15:34;16.25;67.54
71647;SHT31;59706;45.634;11.704;2023-04-25T16:18:01;16.27;67.18
71647;SHT31;59706;45.634;11.704;2023-04-25T16:20:28;16.22;66.48
71647;SHT31;59706;45.634;11.704;2023-04-25T16:22:55;16.25;66.46
71647;SHT31;59706;45.634;11.704;2023-04-25T16:25:22;16.31;66.76
71647;SHT31;59706;45.634;11.704;2023-04-25T16:27:51;16.34;66.41
71647;SHT31;59706;45.634;11.704;2023-04-25T16:30:18;16.28;66.64
71647;SHT31;59706;45.634;11.704;2023-04-25T16:32:45;16.19;66.32
71647;SHT31;59706;45.634;11.704;2023-04-25T16:35:13;16.16;66.44
71647;SHT31;59706;45.634;11.704;2023-04-25T16:37:41;16.14;66.58
71647;SHT31;59706;45.634;11.704;2023-04-25T16:40:08;16.15;65.64
71647;SHT31;59706;45.634;11.704;2023-04-25T16:42:36;16.15;65.15
71647;SHT31;59706;45.634;11.704;2023-04-25T16:45:04;16.19;65.38
71647;SHT31;59706;45.634;11.704;2023-04-25T16:47:35;16.18;65.69
71647;SHT31;59706;45.634;11.704;2023-04-25T16:50:02;16.17;65.38
71647;SHT31;59706;45.634;11.704;2023-04-25T16:52:33;16.14;65.19
71647;SHT31;59706;45.634;11.704;2023-04-25T16:55:00;16.11;64.69
71647;SHT31;59706;45.634;11.704;2023-04-25T16:57:28;16.07;64.21
71647;SHT31;59706;45.634;11.704;2023-04-25T16:59:55;16.07;64.04
71647;SHT31;59706;45.634;11.704;2023-04-25T17:02:23;16.06;64.07
71647;SHT31;59706;45.634;11.704;2023-04-25T17:04:50;16.04;64.18
71647;SHT31;59706;45.634;11.704;2023-04-25T17:07:17;15.99;64.43
71647;SHT31;59706;45.634;11.704;2023-04-25T17:09:48;15.91;64.70
71647;SHT31;59706;45.634;11.704;2023-04-25T17:12:16;15.88;64.87
71647;SHT31;59706;45.634;11.704;2023-04-25T17:14:46;15.81;65.00
71647;SHT31;59706;45.634;11.704;2023-04-25T17:17:14;15.83;64.96
71647;SHT31;59706;45.634;11.704;2023-04-25T17:19:42;15.82;65.28
71647;SHT31;59706;45.634;11.704;2023-04-25T17:22:10;15.84;64.70
71647;SHT31;59706;45.634;11.704;2023-04-25T17:24:37;15.79;64.09
71647;SHT31;59706;45.634;11.704;2023-04-25T17:27:05;15.78;63.97
71647;SHT31;59706;45.634;11.704;2023-04-25T17:29:32;15.80;63.83
71647;SHT31;59706;45.634;11.704;2023-04-25T17:31:59;15.82;63.78
71647;SHT31;59706;45.634;11.704;2023-04-25T17:34:27;15.80;63.76
71647;SHT31;59706;45.634;11.704;2023-04-25T17:36:55;15.69;64.57
71647;SHT31;59706;45.634;11.704;2023-04-25T17:39:22;15.52;65.24
71647;SHT31;59706;45.634;11.704;2023-04-25T17:41:50;15.37;66.05
71647;SHT31;59706;45.634;11.704;2023-04-25T17:44:17;15.26;66.34
71647;SHT31;59706;45.634;11.704;2023-04-25T17:46:45;15.20;66.76
71647;SHT31;59706;45.634;11.704;2023-04-25T17:49:12;15.12;66.86
71647;SHT31;59706;45.634;11.704;2023-04-25T17:51:39;15.06;67.06
71647;SHT31;59706;45.634;11.704;2023-04-25T17:54:07;15.00;67.16
71647;SHT31;59706;45.634;11.704;2023-04-25T17:56:35;14.95;67.36
71647;SHT31;59706;45.634;11.704;2023-04-25T17:59:02;14.90;67.65
71647;SHT31;59706;45.634;11.704;2023-04-25T18:01:29;14.91;67.93
71647;SHT31;59706;45.634;11.704;2023-04-25T18:03:57;14.90;68.03
71647;SHT31;59706;45.634;11.704;2023-04-25T18:06:24;14.89;67.93
71647;SHT31;59706;45.634;11.704;2023-04-25T18:08:52;14.82;68.00
71647;SHT31;59706;45.634;11.704;2023-04-25T18:11:21;14.77;68.15
71647;SHT31;59706;45.634;11.704;2023-04-25T18:13:48;14.74;68.08
71647;SHT31;59706;45.634;11.704;2023-04-25T18:16:18;14.81;67.83
71647;SHT31;59706;45.634;11.704;2023-04-25T18:18:46;14.90;67.61
71647;SHT31;59706;45.634;11.704;2023-04-25T18:21:20;14.93;67.49
71647;SHT31;59706;45.634;11.704;2023-04-25T18:23:47;14.74;66.90